Time;durP1;ratioP1;P1;durP2;ratioP2;P2;SDS_P1;SDS_P2;PMS_P1;PMS_P2;Temp;Humidity;BMP_temperature;BMP_pressure;BME280_temperature;BME280_humidity;BME280_pressure;Samples;Min_cycle;Max_cycle;Signal;HPM_P1;HPM_P2
2023/06/08 00:03:21;;;;;;;12.52;8.38;;;17.00;99.90;;;;;;7337947;32;20261;-55
2023/06/08 00:07:24;;;;;;;12.95;8.35;;;17.00;99.90;;;;;;7340009;32;20092;-56
2023/06/08 00:11:27;;;;;;;13.70;8.57;;;17.10;99.90;;;;;;7340568;32;20155;-55
2023/06/08 00:15:30;;;;;;;13.32;8.98;;;17.10;99.90;;;;;;7339247;32;20126;-56
2023/06/08 00:19:35;;;;;;;13.13;8.82;;;17.00;99.90;;;;;;7341801;32;20111;-56
2023/06/08 00:23:37;;;;;;;12.68;8.77;;;17.00;99.90;;;;;;7338699;32;20152;-55
2023/06/08 00:27:39;;;;;;;19.52;9.30;;;17.00;99.90;;;;;;7342860;32;20142;-55
2023/06/08 00:31:41;;;;;;;14.75;9.07;;;17.00;99.90;;;;;;7342379;32;20130;-55
2023/06/08 00:35:43;;;;;;;13.77;8.20;;;16.90;99.90;;;;;;7344329;32;20135;-54
2023/06/08 00:39:45;;;;;;;13.20;8.98;;;16.90;99.90;;;;;;7338876;32;20222;-55
2023/06/08 00:43:47;;;;;;;17.08;8.93;;;16.90;99.90;;;;;;7343646;32;20111;-55
2023/06/08 00:47:49;;;;;;;10.98;8.45;;;16.90;99.90;;;;;;7342304;32;20160;-57
2023/06/08 00:51:52;;;;;;;13.05;9.13;;;16.90;99.90;;;;;;7343879;32;20338;-56
2023/06/08 00:55:55;;;;;;;14.68;8.32;;;16.80;99.90;;;;;;7342595;32;20164;-55
2023/06/08 01:00:01;;;;;;;14.75;8.63;;;16.80;99.90;;;;;;7343995;32;20123;-55
2023/06/08 01:04:06;;;;;;;11.05;8.52;;;16.80;99.90;;;;;;7337388;32;20216;-55
2023/06/08 01:08:12;;;;;;;13.40;8.43;;;16.70;99.90;;;;;;7342005;32;20183;-55
2023/06/08 01:12:15;;;;;;;16.65;9.45;;;16.80;99.90;;;;;;7341802;32;20103;-55
2023/06/08 01:16:18;;;;;;;17.65;9.63;;;16.70;99.90;;;;;;7340896;32;20701;-55
2023/06/08 01:20:36;;;;;;;15.48;8.98;;;16.70;99.90;;;;;;7336748;32;20286;-55
2023/06/08 01:24:40;;;;;;;14.57;9.68;;;16.60;99.90;;;;;;7335894;32;20108;-55
2023/06/08 01:28:46;;;;;;;14.80;9.75;;;16.60;99.90;;;;;;7343944;32;20178;-56
2023/06/08 01:32:48;;;;;;;18.17;9.35;;;16.60;99.90;;;;;;7344236;32;20758;-56
2023/06/08 01:37:09;;;;;;;16.87;9.20;;;16.60;99.90;;;;;;7347705;32;20114;-55
2023/06/08 01:41:23;;;;;;;15.63;9.40;;;16.50;99.90;;;;;;7346917;32;20111;-55
2023/06/08 01:45:27;;;;;;;25.25;10.10;;;16.50;99.90;;;;;;7348037;32;20885;-55
2023/06/08 01:49:32;;;;;;;17.37;9.68;;;16.50;99.90;;;;;;7335596;32;20183;-55
2023/06/08 01:53:34;;;;;;;14.45;8.95;;;16.40;99.90;;;;;;7340907;32;20283;-56
2023/06/08 01:57:36;;;;;;;14.50;9.35;;;16.50;99.90;;;;;;7333763;32;20707;-54
2023/06/08 02:01:38;;;;;;;16.83;9.70;;;16.50;99.90;;;;;;7339256;32;20112;-55
2023/06/08 02:05:40;;;;;;;17.83;9.52;;;16.50;99.90;;;;;;7345996;32;20107;-56
2023/06/08 02:09:41;;;;;;;18.62;9.43;;;16.40;99.90;;;;;;7337443;32;20210;-55
2023/06/08 02:13:44;;;;;;;19.17;9.73;;;16.40;99.90;;;;;;7341886;32;20513;-55
2023/06/08 02:17:46;;;;;;;17.42;9.65;;;16.40;99.90;;;;;;7338596;32;20111;-55
2023/06/08 02:21:49;;;;;;;14.32;8.55;;;16.30;99.90;;;;;;7343616;32;20868;-56
2023/06/08 02:25:51;;;;;;;17.58;9.27;;;16.40;99.90;;;;;;7343560;32;20147;-56
2023/06/08 02:29:53;;;;;;;17.25;9.60;;;16.30;99.90;;;;;;7343365;32;20149;-55
2023/06/08 02:33:55;;;;;;;17.50;9.27;;;16.20;99.90;;;;;;7335520;32;20240;-55
2023/06/08 02:37:57;;;;;;;20.12;8.82;;;16.20;99.90;;;;;;7345558;32;20127;-56
2023/06/08 02:41:58;;;;;;;13.90;9.00;;;16.20;99.90;;;;;;7344173;32;20134;-55
2023/06/08 02:46:00;;;;;;;16.30;9.55;;;16.10;99.90;;;;;;7345831;32;20104;-55
2023/06/08 02:50:02;;;;;;;21.70;9.73;;;16.00;99.90;;;;;;7347201;32;20116;-55
2023/06/08 02:54:05;;;;;;;18.87;9.88;;;15.90;99.90;;;;;;7347411;32;20304;-56
2023/06/08 02:58:09;;;;;;;19.75;10.02;;;15.80;99.90;;;;;;7341665;32;20259;-55
2023/06/08 03:02:11;;;;;;;22.20;10.63;;;15.60;99.90;;;;;;7339699;32;20191;-56
2023/06/08 03:06:17;;;;;;;19.02;11.18;;;15.60;99.90;;;;;;7345336;32;20548;-54
2023/06/08 03:10:19;;;;;;;20.30;9.88;;;15.50;99.90;;;;;;7335550;32;20738;-54
2023/06/08 03:14:28;;;;;;;18.20;10.27;;;15.50;99.90;;;;;;7342469;32;20180;-54
2023/06/08 03:18:30;;;;;;;16.60;10.25;;;15.40;99.90;;;;;;7345359;32;20175;-55
2023/06/08 03:22:34;;;;;;;19.58;10.30;;;15.20;99.90;;;;;;7337075;32;20099;-55
2023/06/08 03:26:36;;;;;;;20.58;11.10;;;15.20;99.90;;;;;;7340259;32;20291;-54
2023/06/08 03:30:38;;;;;;;24.42;10.68;;;15.20;99.90;;;;;;7335374;32;20107;-56
2023/06/08 03:34:40;;;;;;;21.45;11.30;;;15.20;99.90;;;;;;7346926;32;20139;-54
2023/06/08 03:38:42;;;;;;;18.42;10.30;;;15.10;99.90;;;;;;7340298;32;20135;-55
2023/06/08 03:42:44;;;;;;;18.73;11.02;;;15.00;99.90;;;;;;7347533;32;20129;-55
2023/06/08 03:46:46;;;;;;;14.68;10.30;;;15.00;99.90;;;;;;7342172;32;20571;-55
2023/06/08 03:50:51;;;;;;;16.33;10.85;;;14.90;99.90;;;;;;7338558;32;20107;-55
2023/06/08 03:54:54;;;;;;;19.52;10.02;;;14.90;99.90;;;;;;7344109;32;20182;-55
2023/06/08 03:58:56;;;;;;;20.37;10.63;;;14.90;99.90;;;;;;7344712;32;20750;-55
2023/06/08 04:02:58;;;;;;;17.17;10.20;;;14.80;99.90;;;;;;7345127;32;20123;-56
2023/06/08 04:07:01;;;;;;;21.87;10.93;;;14.80;99.90;;;;;;7347244;32;20486;-55
2023/06/08 04:11:02;;;;;;;22.90;10.70;;;14.80;99.90;;;;;;7339285;32;20229;-55
2023/06/08 04:15:05;;;;;;;17.73;10.25;;;14.70;99.90;;;;;;7330543;32;20254;-55
2023/06/08 04:19:09;;;;;;;21.85;11.27;;;14.80;99.90;;;;;;7329373;32;20230;-55
2023/06/08 04:23:11;;;;;;;20.73;11.23;;;14.70;99.90;;;;;;7331897;32;20134;-55
2023/06/08 04:27:13;;;;;;;14.63;10.02;;;14.60;99.90;;;;;;7327247;32;20416;-55
2023/06/08 04:31:15;;;;;;;15.10;9.80;;;14.70;99.90;;;;;;7342534;32;20217;-54
2023/06/08 04:35:17;;;;;;;16.02;10.32;;;15.00;99.90;;;;;;7337245;32;20114;-55
2023/06/08 04:39:19;;;;;;;18.12;10.10;;;15.10;99.90;;;;;;7338375;32;20438;-55
2023/06/08 04:43:22;;;;;;;21.62;10.68;;;15.20;99.90;;;;;;7334612;32;20529;-55
2023/06/08 04:47:24;;;;;;;17.83;9.77;;;15.30;99.90;;;;;;7341858;32;20423;-55
2023/06/08 04:51:29;;;;;;;17.52;10.10;;;15.30;99.90;;;;;;7341901;32;20164;-55
2023/06/08 04:55:31;;;;;;;16.73;10.45;;;15.50;99.90;;;;;;7343905;32;20107;-55
2023/06/08 04:59:33;;;;;;;21.30;10.80;;;15.60;99.90;;;;;;7338582;32;20103;-54
2023/06/08 05:03:35;;;;;;;16.00;10.38;;;15.50;99.90;;;;;;7340551;32;20212;-54
2023/06/08 05:07:36;;;;;;;23.35;10.75;;;15.60;99.90;;;;;;7339216;32;20166;-54
2023/06/08 05:11:39;;;;;;;16.20;9.65;;;15.70;99.90;;;;;;7330733;32;20214;-55
2023/06/08 05:15:41;;;;;;;22.25;10.23;;;16.00;99.90;;;;;;7331638;32;20179;-56
2023/06/08 05:19:43;;;;;;;18.42;10.13;;;16.20;99.90;;;;;;7326781;32;20186;-56
2023/06/08 05:23:45;;;;;;;15.77;9.77;;;15.90;99.90;;;;;;7325022;32;20291;-57
2023/06/08 05:27:47;;;;;;;21.30;10.10;;;15.90;99.90;;;;;;7326809;32;20542;-57
2023/06/08 05:31:49;;;;;;;20.02;10.80;;;15.90;99.90;;;;;;7331893;32;20169;-56
2023/06/08 05:35:51;;;;;;;17.67;9.93;;;15.70;99.90;;;;;;7334935;32;20234;-56
2023/06/08 05:39:52;;;;;;;19.92;10.85;;;15.80;99.90;;;;;;7329274;32;20135;-56
2023/06/08 05:43:54;;;;;;;16.80;10.10;;;15.70;99.90;;;;;;7336848;32;20234;-55
2023/06/08 05:47:56;;;;;;;17.98;10.55;;;15.70;99.90;;;;;;7333831;32;20842;-54
2023/06/08 05:51:58;;;;;;;16.08;10.38;;;15.60;99.90;;;;;;7335854;32;20135;-54
2023/06/08 05:56:00;;;;;;;14.80;9.55;;;15.70;99.90;;;;;;7332138;32;20119;-53
2023/06/08 06:00:06;;;;;;;18.75;10.68;;;16.00;99.90;;;;;;7338055;32;20111;-53
2023/06/08 06:04:07;;;;;;;16.48;9.48;;;16.20;99.90;;;;;;7332259;32;20495;-54
2023/06/08 06:08:19;;;;;;;18.35;10.35;;;16.50;99.90;;;;;;7330782;32;20217;-53
2023/06/08 06:12:21;;;;;;;19.17;9.25;;;16.60;99.90;;;;;;7336199;32;20202;-54
2023/06/08 06:16:23;;;;;;;18.00;10.00;;;16.70;99.90;;;;;;7337598;32;20636;-54
2023/06/08 06:20:27;;;;;;;14.77;9.80;;;17.00;99.90;;;;;;7337980;32;20253;-57
2023/06/08 06:24:29;;;;;;;16.83;9.15;;;17.00;99.90;;;;;;7340117;32;20095;-57
2023/06/08 06:28:30;;;;;;;16.12;10.50;;;17.30;99.90;;;;;;7340889;32;20572;-57
2023/06/08 06:32:32;;;;;;;17.67;9.98;;;17.30;99.90;;;;;;7345151;32;20157;-57
2023/06/08 06:36:34;;;;;;;17.05;9.80;;;17.30;99.90;;;;;;7339008;32;20107;-57
2023/06/08 06:40:36;;;;;;;17.33;9.77;;;17.30;99.90;;;;;;7333506;32;20111;-57
2023/06/08 06:44:38;;;;;;;16.85;10.07;;;17.30;99.90;;;;;;7343949;32;20676;-59
2023/06/08 06:48:39;;;;;;;18.60;10.55;;;17.40;99.90;;;;;;7340319;32;20190;-59
2023/06/08 06:52:41;;;;;;;19.00;9.80;;;17.40;99.90;;;;;;7341938;32;20169;-58
2023/06/08 06:56:43;;;;;;;14.23;9.32;;;17.40;99.90;;;;;;7336880;32;20180;-58
2023/06/08 07:00:45;;;;;;;18.73;8.80;;;17.30;99.90;;;;;;7330949;32;20780;-58
2023/06/08 07:04:47;;;;;;;17.45;9.77;;;17.30;99.90;;;;;;7336315;32;20317;-58
2023/06/08 07:08:49;;;;;;;13.98;9.50;;;17.00;99.90;;;;;;7339627;32;20163;-59
2023/06/08 07:12:51;;;;;;;17.90;10.35;;;17.20;99.90;;;;;;7338416;32;20210;-58
2023/06/08 07:16:52;;;;;;;15.95;9.70;;;17.20;99.90;;;;;;7332749;32;20123;-59
2023/06/08 07:20:54;;;;;;;13.20;9.23;;;17.50;99.90;;;;;;7334498;32;20274;-58
2023/06/08 07:24:56;;;;;;;20.15;10.95;;;17.80;99.90;;;;;;7334428;32;20099;-57
2023/06/08 07:29:18;;;;;;;17.50;10.40;;;17.90;99.90;;;;;;7342012;32;20127;-57
2023/06/08 07:33:20;;;;;;;16.37;8.35;;;18.20;99.90;;;;;;7336235;32;20111;-57
2023/06/08 07:37:22;;;;;;;11.43;7.90;;;18.80;99.90;;;;;;7332855;32;20553;-58
2023/06/08 07:41:27;;;;;;;11.77;8.27;;;19.30;99.90;;;;;;7337819;32;20213;-56
2023/06/08 07:45:28;;;;;;;13.62;8.90;;;19.70;99.90;;;;;;7335458;32;20612;-57
2023/06/08 07:49:30;;;;;;;11.50;7.47;;;20.00;99.90;;;;;;7336724;32;20307;-57
2023/06/08 07:53:36;;;;;;;16.20;8.30;;;20.20;99.90;;;;;;7335496;32;20135;-56
2023/06/08 07:57:38;;;;;;;15.68;8.32;;;20.20;99.90;;;;;;7335164;32;20466;-60
2023/06/08 08:01:40;;;;;;;12.60;8.13;;;20.30;99.90;;;;;;7335703;32;20099;-55
2023/06/08 08:05:42;;;;;;;12.20;7.05;;;20.80;99.90;;;;;;7344240;32;20223;-55
2023/06/08 08:09:44;;;;;;;12.13;7.37;;;20.70;99.90;;;;;;7340303;32;20946;-55
2023/06/08 08:13:46;;;;;;;13.00;7.43;;;21.00;99.90;;;;;;7344702;32;20186;-56
2023/06/08 08:17:48;;;;;;;11.88;7.72;;;21.10;99.90;;;;;;7335149;32;20315;-56
2023/06/08 08:21:50;;;;;;;10.35;7.07;;;21.40;99.90;;;;;;7337011;32;20131;-56
2023/06/08 08:25:52;;;;;;;10.65;6.80;;;21.60;99.90;;;;;;7332382;32;20107;-55
2023/06/08 08:29:54;;;;;;;11.98;6.72;;;21.80;99.90;;;;;;7336715;32;20135;-55
2023/06/08 08:33:56;;;;;;;13.60;7.03;;;21.80;99.90;;;;;;7332674;32;20202;-55
2023/06/08 08:37:58;;;;;;;16.85;6.97;;;22.00;99.90;;;;;;7336493;32;20271;-57
2023/06/08 08:42:06;;;;;;;15.00;9.95;;;22.10;99.90;;;;;;7345863;32;20186;-58
2023/06/08 08:46:08;;;;;;;10.38;6.68;;;22.90;99.90;;;;;;7329173;32;20153;-58
2023/06/08 08:50:16;;;;;;;11.43;5.97;;;23.00;99.90;;;;;;7336398;32;20107;-58
2023/06/08 08:54:31;;;;;;;8.98;6.07;;;23.30;99.90;;;;;;7341487;32;20234;-57
2023/06/08 08:58:34;;;;;;;10.02;5.97;;;23.50;99.90;;;;;;7337226;32;20138;-57
2023/06/08 09:02:36;;;;;;;8.60;6.22;;;23.90;99.90;;;;;;7334079;32;20191;-57
2023/06/08 09:06:38;;;;;;;10.73;7.30;;;23.80;99.90;;;;;;7333889;32;20168;-58
2023/06/08 09:10:40;;;;;;;8.38;5.30;;;24.30;99.90;;;;;;7336182;32;20131;-58
2023/06/08 09:14:57;;;;;;;10.82;6.50;;;24.70;99.90;;;;;;7337119;32;20107;-58
2023/06/08 09:19:06;;;;;;;10.07;5.82;;;24.80;99.90;;;;;;7333345;32;20690;-58
2023/06/08 09:23:20;;;;;;;8.93;5.80;;;24.90;99.90;;;;;;7336599;32;20590;-57
2023/06/08 09:27:27;;;;;;;10.75;6.07;;;25.40;99.90;;;;;;7332608;32;20521;-57
2023/06/08 09:31:29;;;;;;;10.73;5.65;;;25.50;99.90;;;;;;7336545;32;20150;-58
2023/06/08 09:35:31;;;;;;;9.23;5.68;;;25.50;99.90;;;;;;7329021;32;20188;-57
2023/06/08 09:39:43;;;;;;;10.80;6.43;;;26.00;99.90;;;;;;7336215;32;20712;-58
2023/06/08 09:43:47;;;;;;;12.68;8.52;;;25.70;99.90;;;;;;7333882;32;20106;-56
2023/06/08 09:47:49;;;;;;;7.43;5.62;;;25.90;99.90;;;;;;7339980;32;20506;-57
2023/06/08 09:51:52;;;;;;;9.23;6.03;;;26.60;99.90;;;;;;7341523;32;20373;-57
2023/06/08 09:56:04;;;;;;;8.70;5.68;;;26.80;99.90;;;;;;7342101;32;20176;-58
2023/06/08 10:04:32;;;;;;;9.00;5.53;;;27.20;99.90;;;;;;7340469;32;20160;-58
2023/06/08 10:08:37;;;;;;;9.38;5.50;;;27.60;99.90;;;;;;7340760;32;20141;-57
2023/06/08 10:12:40;;;;;;;10.52;6.65;;;27.30;99.90;;;;;;7338382;32;20205;-58
2023/06/08 10:16:42;;;;;;;10.32;5.95;;;26.40;99.90;;;;;;7345306;32;20736;-57
2023/06/08 10:20:45;;;;;;;12.35;6.87;;;26.60;99.90;;;;;;7340033;32;20138;-57
2023/06/08 10:24:48;;;;;;;12.80;7.32;;;26.00;99.90;;;;;;7337924;32;20234;-57
2023/06/08 10:29:10;;;;;;;10.43;6.30;;;25.60;99.90;;;;;;7336310;32;20172;-58
2023/06/08 10:33:25;;;;;;;8.27;5.78;;;26.00;99.90;;;;;;7340714;32;20129;-57
2023/06/08 10:37:28;;;;;;;9.73;6.25;;;26.70;99.90;;;;;;7337069;32;20233;-58
2023/06/08 10:41:53;;;;;;;10.88;7.07;;;26.70;99.90;;;;;;7339769;32;20157;-59
2023/06/08 10:45:55;;;;;;;12.27;6.40;;;26.20;99.90;;;;;;7340512;32;20229;-58
2023/06/08 10:50:06;;;;;;;14.32;7.30;;;26.40;99.90;;;;;;7342116;32;20244;-58
2023/06/08 10:54:09;;;;;;;10.65;6.97;;;26.40;99.90;;;;;;7341058;32;20238;-58
2023/06/08 10:58:21;;;;;;;9.10;6.00;;;26.20;99.90;;;;;;7327928;32;20221;-59
2023/06/08 11:02:23;;;;;;;7.97;5.93;;;26.80;99.90;;;;;;7335447;32;20231;-58
2023/06/08 11:06:29;;;;;;;7.68;6.10;;;27.10;99.90;;;;;;7334708;32;20103;-58
2023/06/08 11:10:32;;;;;;;13.35;7.15;;;26.10;99.90;;;;;;7336022;32;20174;-56
2023/06/08 11:14:33;;;;;;;11.48;6.03;;;25.90;99.90;;;;;;7333759;32;20199;-58
2023/06/08 11:18:35;;;;;;;11.02;6.78;;;26.20;99.90;;;;;;7337935;32;20194;-58
2023/06/08 11:22:40;;;;;;;10.73;6.03;;;26.80;99.90;;;;;;7336491;32;20298;-58
2023/06/08 11:26:42;;;;;;;9.38;6.03;;;26.90;99.90;;;;;;7331885;32;20173;-57
2023/06/08 11:31:09;;;;;;;8.02;5.97;;;27.00;99.90;;;;;;7329383;32;20276;-58
2023/06/08 11:35:11;;;;;;;13.73;5.40;;;27.00;99.90;;;;;;7331365;32;20284;-58
2023/06/08 11:39:14;;;;;;;6.72;5.55;;;27.60;99.90;;;;;;7340018;32;20158;-57
2023/06/08 11:43:15;;;;;;;11.32;5.50;;;27.80;99.90;;;;;;7339138;32;20136;-57
2023/06/08 11:47:18;;;;;;;8.95;5.68;;;28.30;99.90;;;;;;7340522;32;20199;-59
2023/06/08 11:51:25;;;;;;;9.05;5.68;;;28.30;99.90;;;;;;7333563;32;20111;-59
2023/06/08 11:55:28;;;;;;;7.45;5.93;;;28.00;99.90;;;;;;7334935;32;20163;-58
2023/06/08 11:59:35;;;;;;;7.50;5.75;;;28.10;99.90;;;;;;7338241;32;20119;-58
2023/06/08 12:03:47;;;;;;;7.00;5.37;;;27.60;99.90;;;;;;7336445;32;20104;-57
2023/06/08 12:07:57;;;;;;;10.05;5.82;;;27.10;99.90;;;;;;7336981;32;20166;-58
2023/06/08 12:12:09;;;;;;;9.85;6.28;;;27.80;99.90;;;;;;7333244;32;20115;-58
2023/06/08 12:16:11;;;;;;;9.25;6.00;;;28.30;99.90;;;;;;7331391;32;20103;-58
2023/06/08 12:20:17;;;;;;;10.93;5.95;;;29.00;99.90;;;;;;7334303;32;20132;-58
2023/06/08 12:24:18;;;;;;;8.32;5.72;;;29.20;98.20;;;;;;7335723;32;20183;-58
2023/06/08 12:28:23;;;;;;;9.90;6.07;;;29.00;99.00;;;;;;7334158;32;20257;-58
2023/06/08 12:32:25;;;;;;;8.20;6.10;;;29.10;99.10;;;;;;7337318;32;20250;-58
2023/06/08 12:36:27;;;;;;;8.50;6.28;;;29.00;98.10;;;;;;7337264;32;20822;-56
2023/06/08 12:40:29;;;;;;;6.45;5.85;;;27.50;99.90;;;;;;7336801;32;20119;-58
2023/06/08 12:44:34;;;;;;;10.50;6.37;;;26.50;99.90;;;;;;7335895;32;20103;-57
2023/06/08 12:48:36;;;;;;;7.85;6.20;;;27.00;99.90;;;;;;7331968;32;20229;-58
2023/06/08 12:52:38;;;;;;;9.52;5.53;;;27.20;99.90;;;;;;7337163;32;20203;-58
2023/06/08 12:56:40;;;;;;;8.70;5.85;;;28.20;99.90;;;;;;7334767;32;20202;-57
2023/06/08 13:00:41;;;;;;;7.00;5.22;;;28.30;99.50;;;;;;7331533;32;20098;-58
2023/06/08 13:04:43;;;;;;;7.07;5.47;;;28.70;98.90;;;;;;7337194;32;20285;-57
2023/06/08 13:08:45;;;;;;;6.60;4.90;;;28.40;98.20;;;;;;7335411;32;20123;-57
2023/06/08 13:12:48;;;;;;;7.03;5.75;;;29.10;99.70;;;;;;7338536;32;20195;-58
2023/06/08 13:16:50;;;;;;;5.65;4.93;;;28.20;97.20;;;;;;7334277;32;20284;-58
2023/06/08 13:20:54;;;;;;;9.63;5.05;;;28.00;99.80;;;;;;7333062;32;20130;-58
2023/06/08 13:24:55;;;;;;;6.12;4.62;;;28.90;99.00;;;;;;7341752;32;20129;-57
2023/06/08 13:28:57;;;;;;;8.60;5.05;;;28.60;97.30;;;;;;7344211;32;20100;-57
2023/06/08 13:33:00;;;;;;;8.60;4.87;;;28.80;97.60;;;;;;7338100;32;20166;-57
2023/06/08 13:37:03;;;;;;;6.18;5.45;;;27.70;98.40;;;;;;7338902;32;20175;-57
2023/06/08 13:41:05;;;;;;;7.62;5.70;;;27.60;99.50;;;;;;7335120;32;20413;-58
2023/06/08 13:45:10;;;;;;;8.10;5.50;;;27.20;98.90;;;;;;7338038;32;20210;-58
2023/06/08 13:49:14;;;;;;;8.40;5.30;;;26.50;99.90;;;;;;7335667;32;20107;-57
2023/06/08 13:53:16;;;;;;;6.43;5.45;;;26.50;99.90;;;;;;7340465;32;20130;-58
2023/06/08 13:57:17;;;;;;;8.30;5.70;;;26.90;99.90;;;;;;7338786;32;20308;-58
2023/06/08 14:01:19;;;;;;;9.32;5.37;;;27.20;99.90;;;;;;7343216;32;20220;-58
2023/06/08 14:05:21;;;;;;;8.63;5.30;;;27.70;98.20;;;;;;7330013;32;20764;-58
2023/06/08 14:09:22;;;;;;;9.32;5.00;;;28.00;98.90;;;;;;7335059;32;20554;-54
2023/06/08 14:13:25;;;;;;;6.47;4.87;;;27.50;98.10;;;;;;7333509;32;20127;-57
2023/06/08 14:17:27;;;;;;;8.77;4.82;;;27.50;98.70;;;;;;7337619;32;20123;-56
2023/06/08 14:21:28;;;;;;;6.00;5.20;;;27.60;97.30;;;;;;7334292;32;20107;-58
2023/06/08 14:25:32;;;;;;;6.90;4.37;;;27.90;96.90;;;;;;7330127;32;20202;-57
2023/06/08 14:29:34;;;;;;;5.03;4.53;;;28.00;97.30;;;;;;7337349;32;20234;-55
2023/06/08 14:33:35;;;;;;;8.13;4.53;;;28.30;95.60;;;;;;7320459;32;20123;-56
2023/06/08 14:37:37;;;;;;;6.55;5.50;;;27.50;96.80;;;;;;7335724;32;20206;-56
2023/06/08 14:41:40;;;;;;;7.70;4.72;;;27.80;96.40;;;;;;7341979;32;20174;-56
2023/06/08 14:45:42;;;;;;;10.13;4.72;;;28.40;94.70;;;;;;7344274;32;20494;-56
2023/06/08 14:49:44;;;;;;;6.22;4.80;;;28.50;95.30;;;;;;7336757;32;20296;-56
2023/06/08 14:53:45;;;;;;;6.20;4.20;;;28.10;95.40;;;;;;7343696;32;20210;-56
2023/06/08 14:57:47;;;;;;;5.60;4.12;;;27.30;95.70;;;;;;7341332;32;20881;-56
2023/06/08 15:01:49;;;;;;;6.32;4.72;;;27.30;97.00;;;;;;7341542;32;20111;-56
2023/06/08 15:05:51;;;;;;;7.87;4.68;;;27.30;95.90;;;;;;7339388;32;20142;-55
2023/06/08 15:09:52;;;;;;;7.00;4.43;;;27.90;95.70;;;;;;7342579;32;20324;-61
2023/06/08 15:13:54;;;;;;;9.60;4.82;;;28.00;95.70;;;;;;7345504;32;20158;-56
2023/06/08 15:17:56;;;;;;;6.95;4.95;;;28.10;94.10;;;;;;7341152;32;20116;-57
2023/06/08 15:21:57;;;;;;;4.82;4.35;;;27.90;95.20;;;;;;7344740;32;20154;-57
2023/06/08 15:25:59;;;;;;;5.47;4.28;;;27.20;95.10;;;;;;7347136;32;20119;-56
2023/06/08 15:30:01;;;;;;;6.97;4.72;;;27.10;95.10;;;;;;7349188;32;20122;-56
2023/06/08 15:34:03;;;;;;;5.85;4.43;;;26.50;96.60;;;;;;7345630;32;20246;-56
2023/06/08 15:38:05;;;;;;;5.22;4.30;;;26.50;96.80;;;;;;7343910;32;20126;-56
2023/06/08 15:42:07;;;;;;;5.82;4.55;;;26.60;97.10;;;;;;7331551;32;20205;-56
2023/06/08 15:46:09;;;;;;;7.65;4.72;;;26.20;97.70;;;;;;7340897;32;20099;-56
2023/06/08 15:50:11;;;;;;;6.68;5.00;;;25.80;98.10;;;;;;7340658;32;20148;-56
2023/06/08 15:54:13;;;;;;;8.65;5.22;;;25.90;98.90;;;;;;7345869;32;20450;-56
2023/06/08 15:58:15;;;;;;;9.02;4.80;;;25.90;98.30;;;;;;7339883;32;20107;-56
2023/06/08 16:02:17;;;;;;;6.40;5.10;;;25.70;99.60;;;;;;7333440;32;20203;-57
2023/06/08 16:06:19;;;;;;;7.80;4.97;;;25.70;98.50;;;;;;7336800;32;20145;-56
2023/06/08 16:10:21;;;;;;;6.68;4.93;;;25.60;98.50;;;;;;7338926;32;20541;-57
2023/06/08 16:14:23;;;;;;;8.85;4.60;;;25.40;99.90;;;;;;7338247;32;20483;-56
2023/06/08 16:18:24;;;;;;;6.65;4.15;;;25.30;99.90;;;;;;7339785;32;20209;-54
2023/06/08 16:22:27;;;;;;;4.15;3.75;;;25.40;99.60;;;;;;7340624;32;20099;-54
2023/06/08 16:26:29;;;;;;;5.47;4.00;;;25.30;97.30;;;;;;7341659;32;20127;-55
2023/06/08 16:30:31;;;;;;;8.23;3.97;;;25.30;97.80;;;;;;7344078;32;20445;-55
2023/06/08 16:34:33;;;;;;;3.45;3.15;;;25.30;97.70;;;;;;7340524;32;20104;-56
2023/06/08 16:38:38;;;;;;;4.53;3.40;;;25.40;96.10;;;;;;7337869;32;20112;-55
2023/06/08 16:42:39;;;;;;;4.15;2.72;;;25.20;95.40;;;;;;7337404;32;20736;-56
2023/06/08 16:46:41;;;;;;;4.32;3.37;;;25.20;94.50;;;;;;7337753;32;20497;-54
2023/06/08 16:50:43;;;;;;;3.62;2.80;;;25.10;94.70;;;;;;7341536;32;20108;-55
2023/06/08 16:54:45;;;;;;;9.27;3.22;;;25.00;95.00;;;;;;7339696;32;20206;-56
2023/06/08 16:58:47;;;;;;;4.22;3.00;;;24.90;94.60;;;;;;7334832;32;20130;-56
2023/06/08 17:02:48;;;;;;;7.05;3.25;;;24.90;94.00;;;;;;7342781;32;20119;-59
2023/06/08 17:06:50;;;;;;;5.55;3.55;;;24.90;93.70;;;;;;7338507;32;20134;-57
2023/06/08 17:10:52;;;;;;;5.37;3.70;;;24.90;94.10;;;;;;7332357;32;20556;-57
2023/06/08 17:14:53;;;;;;;4.60;3.35;;;25.00;93.70;;;;;;7337218;32;20184;-57
2023/06/08 17:18:55;;;;;;;4.62;3.53;;;24.80;93.60;;;;;;7340593;32;20134;-57
2023/06/08 17:22:57;;;;;;;7.75;4.85;;;24.80;94.10;;;;;;7343294;32;20218;-57
2023/06/08 17:26:59;;;;;;;4.93;3.30;;;24.80;95.00;;;;;;7337834;32;20223;-57
2023/06/08 17:31:02;;;;;;;10.45;4.57;;;24.60;95.60;;;;;;7342540;32;20513;-57
2023/06/08 17:35:04;;;;;;;6.37;3.42;;;24.70;95.50;;;;;;7340086;32;20807;-57
2023/06/08 17:39:07;;;;;;;4.15;3.35;;;24.60;96.30;;;;;;7332734;32;20359;-56
2023/06/08 17:43:09;;;;;;;6.20;4.18;;;24.60;96.60;;;;;;7341103;32;20803;-56
2023/06/08 17:47:10;;;;;;;6.20;4.03;;;24.50;96.70;;;;;;7337445;32;20215;-57
2023/06/08 17:51:16;;;;;;;4.75;3.90;;;24.40;97.50;;;;;;7344122;32;20267;-57
2023/06/08 17:55:18;;;;;;;5.85;4.05;;;24.40;97.90;;;;;;7341845;32;20261;-57
2023/06/08 17:59:19;;;;;;;7.37;4.07;;;24.20;98.30;;;;;;7339251;32;20338;-58
2023/06/08 18:03:21;;;;;;;4.30;3.90;;;24.30;98.90;;;;;;7342117;32;20217;-56
2023/06/08 18:07:23;;;;;;;7.62;4.20;;;24.20;99.30;;;;;;7341724;32;20107;-57
2023/06/08 18:11:25;;;;;;;6.32;4.53;;;24.00;99.30;;;;;;7340903;32;20359;-57
2023/06/08 18:15:28;;;;;;;7.93;4.97;;;24.20;99.90;;;;;;7340563;32;20206;-56
2023/06/08 18:19:29;;;;;;;8.10;3.95;;;24.00;99.90;;;;;;7344433;32;20153;-57
2023/06/08 18:23:31;;;;;;;5.55;4.22;;;23.90;99.90;;;;;;7341233;32;20202;-57
2023/06/08 18:27:35;;;;;;;7.37;3.80;;;23.80;99.90;;;;;;7341833;32;20134;-57
2023/06/08 18:31:37;;;;;;;6.45;4.15;;;23.70;99.90;;;;;;7345097;32;20562;-57
2023/06/08 18:35:38;;;;;;;7.87;3.92;;;23.60;99.90;;;;;;7336526;32;20188;-56
2023/06/08 18:39:40;;;;;;;5.80;3.87;;;23.50;99.90;;;;;;7341115;32;20262;-57
2023/06/08 18:43:59;;;;;;;11.80;8.70;;;23.40;99.90;;;;;;7341557;32;20227;-57
2023/06/08 18:48:01;;;;;;;4.60;4.12;;;23.40;99.90;;;;;;7348244;32;20480;-57
2023/06/08 18:52:03;;;;;;;5.90;4.00;;;23.40;99.90;;;;;;7343543;32;20116;-56
2023/06/08 18:56:05;;;;;;;6.40;4.22;;;23.40;99.90;;;;;;7340049;32;20647;-57
2023/06/08 19:00:07;;;;;;;6.55;4.53;;;23.30;99.90;;;;;;7349993;32;20189;-57
2023/06/08 19:04:09;;;;;;;8.10;4.93;;;23.10;99.90;;;;;;7348116;32;20130;-56
2023/06/08 19:08:11;;;;;;;9.60;5.12;;;23.00;99.90;;;;;;7344493;32;20122;-57
2023/06/08 19:12:15;;;;;;;6.40;5.10;;;22.80;99.90;;;;;;7350761;32;20664;-57
2023/06/08 19:16:17;;;;;;;8.13;5.65;;;22.70;99.90;;;;;;7342694;32;20175;-57
2023/06/08 19:20:18;;;;;;;7.85;5.55;;;22.60;99.90;;;;;;7341461;32;20695;-57
2023/06/08 19:24:20;;;;;;;5.82;4.40;;;22.50;99.90;;;;;;7336249;32;20217;-55
2023/06/08 19:28:22;;;;;;;5.45;4.18;;;22.30;99.90;;;;;;7343688;32;20545;-56
2023/06/08 19:32:24;;;;;;;4.53;4.12;;;22.10;99.90;;;;;;7337236;32;20140;-56
2023/06/08 19:36:25;;;;;;;8.43;4.20;;;22.00;99.90;;;;;;7334197;32;20240;-56
2023/06/08 19:40:27;;;;;;;6.82;4.55;;;21.90;99.90;;;;;;7343000;32;20583;-57
2023/06/08 19:44:30;;;;;;;11.32;4.37;;;21.70;99.90;;;;;;7336468;32;20183;-56
2023/06/08 19:48:32;;;;;;;5.28;4.60;;;21.60;99.90;;;;;;7347031;32;20235;-56
2023/06/08 19:52:34;;;;;;;6.45;4.22;;;21.30;99.90;;;;;;7342021;32;20126;-56
2023/06/08 19:56:36;;;;;;;6.95;4.47;;;21.10;99.90;;;;;;7340338;32;20224;-56
2023/06/08 20:00:37;;;;;;;4.87;4.22;;;20.90;99.90;;;;;;7340939;32;20106;-55
2023/06/08 20:04:39;;;;;;;6.68;4.20;;;20.70;99.90;;;;;;7338614;32;20127;-55
2023/06/08 20:08:41;;;;;;;6.93;4.43;;;20.60;99.90;;;;;;7338599;32;20131;-55
2023/06/08 20:12:43;;;;;;;8.77;6.82;;;20.40;99.90;;;;;;7336840;32;20253;-55
2023/06/08 20:16:46;;;;;;;8.75;5.25;;;20.30;99.90;;;;;;7337712;32;20115;-55
2023/06/08 20:20:52;;;;;;;5.90;4.72;;;20.00;99.90;;;;;;7341630;32;20186;-54
2023/06/08 20:24:54;;;;;;;9.40;5.43;;;19.80;99.90;;;;;;7339807;32;20112;-54
2023/06/08 20:28:55;;;;;;;8.75;5.78;;;19.70;99.90;;;;;;7335467;32;20120;-54
2023/06/08 20:32:58;;;;;;;9.10;5.15;;;19.60;99.90;;;;;;7339909;32;20636;-56
2023/06/08 20:37:00;;;;;;;10.77;5.62;;;19.30;99.90;;;;;;7340403;32;20111;-53
2023/06/08 20:41:02;;;;;;;6.80;5.95;;;19.10;99.90;;;;;;7340670;32;20127;-55
2023/06/08 20:45:04;;;;;;;14.90;6.22;;;18.80;99.90;;;;;;7341818;32;20162;-54
2023/06/08 20:49:06;;;;;;;6.55;5.95;;;18.70;99.90;;;;;;7335165;32;20205;-54
2023/06/08 20:53:08;;;;;;;8.07;5.85;;;18.50;99.90;;;;;;7343299;32;20236;-56
2023/06/08 20:57:10;;;;;;;7.65;6.20;;;18.40;99.90;;;;;;7345666;32;20123;-55
2023/06/08 21:01:12;;;;;;;8.18;6.68;;;18.30;99.90;;;;;;7339883;32;20133;-54